createdAt,value
2023-04-27T00:01:50.343Z,17.30
2023-04-27T00:04:24.122Z,17.23
2023-04-27T00:06:54.108Z,17.85
2023-04-27T00:09:24.645Z,20.00
2023-04-27T00:11:54.658Z,22.35
2023-04-27T00:14:24.321Z,16.58
2023-04-27T00:16:54.140Z,16.50
2023-04-27T00:19:24.262Z,14.00
2023-04-27T00:21:54.130Z,18.83
2023-04-27T00:24:23.730Z,18.38
2023-04-27T00:26:53.793Z,18.67
2023-04-27T00:29:23.430Z,18.45
2023-04-27T00:31:53.564Z,21.90
2023-04-27T00:34:25.085Z,19.92
2023-04-27T00:36:55.114Z,19.48
2023-04-27T00:39:24.735Z,17.75
2023-04-27T00:41:54.578Z,23.90
2023-04-27T00:44:28.290Z,24.30
2023-04-27T00:47:00.286Z,16.70
2023-04-27T00:49:30.569Z,15.30
2023-04-27T00:52:00.378Z,13.95
2023-04-27T00:54:30.860Z,22.90
2023-04-27T00:57:01.100Z,14.25
2023-04-27T00:59:31.568Z,15.32
2023-04-27T01:02:02.429Z,18.48
2023-04-27T01:04:33.726Z,19.85
2023-04-27T01:07:04.300Z,20.10
2023-04-27T01:09:35.069Z,16.52
2023-04-27T01:12:05.302Z,16.58
2023-04-27T01:14:35.087Z,15.30
2023-04-27T01:17:05.022Z,19.23
2023-04-27T01:19:34.719Z,14.45
2023-04-27T01:22:04.734Z,15.98
2023-04-27T01:24:34.538Z,18.85
2023-04-27T01:27:07.844Z,16.38
2023-04-27T01:29:39.800Z,16.58
2023-04-27T01:32:12.049Z,14.45
2023-04-27T01:34:42.021Z,18.90
2023-04-27T01:37:11.831Z,15.85
2023-04-27T01:39:42.007Z,16.27
2023-04-27T01:42:12.297Z,16.70
2023-04-27T01:44:42.651Z,20.70
2023-04-27T01:47:12.354Z,16.75
2023-04-27T01:49:43.025Z,16.08
2023-04-27T01:52:12.669Z,16.58
2023-04-27T01:54:42.556Z,17.10
2023-04-27T01:57:13.540Z,17.67
2023-04-27T01:59:43.872Z,18.50
2023-04-27T02:02:13.922Z,18.52
2023-04-27T02:04:44.768Z,17.92
2023-04-27T02:07:14.617Z,28.70
2023-04-27T02:09:44.981Z,17.98
2023-04-27T02:12:16.945Z,18.58
2023-04-27T02:14:46.961Z,18.75
2023-04-27T02:17:16.742Z,16.10
2023-04-27T02:19:48.341Z,19.55
2023-04-27T02:22:18.940Z,21.70
2023-04-27T02:24:49.044Z,16.80
2023-04-27T02:27:19.225Z,16.60
2023-04-27T02:29:49.416Z,16.85
2023-04-27T02:32:19.935Z,16.83
2023-04-27T02:34:50.069Z,16.17
2023-04-27T02:37:21.314Z,19.33
2023-04-27T02:39:52.145Z,16.63
2023-04-27T02:42:22.519Z,17.35
2023-04-27T02:44:52.618Z,16.42
2023-04-27T02:47:22.353Z,17.20
2023-04-27T02:49:52.227Z,17.85
2023-04-27T02:52:22.396Z,23.67
2023-04-27T02:54:52.474Z,16.52
2023-04-27T02:57:22.299Z,17.20
2023-04-27T02:59:52.392Z,16.67
2023-04-27T03:02:22.136Z,19.77
2023-04-27T03:04:56.746Z,17.52
2023-04-27T03:07:26.785Z,18.90
2023-04-27T03:09:57.166Z,18.85
2023-04-27T03:12:27.000Z,17.52
2023-04-27T03:14:56.886Z,18.52
2023-04-27T03:17:27.463Z,16.52
2023-04-27T03:19:57.442Z,17.83
2023-04-27T03:22:28.402Z,21.23
2023-04-27T03:24:58.610Z,18.02
2023-04-27T03:27:28.329Z,16.95
2023-04-27T03:29:58.162Z,16.80
2023-04-27T03:32:28.278Z,17.42
2023-04-27T03:34:58.991Z,18.55
2023-04-27T03:37:29.289Z,17.77
2023-04-27T03:39:59.944Z,17.80
2023-04-27T03:42:30.925Z,15.70
2023-04-27T03:45:01.078Z,16.17
2023-04-27T03:47:30.802Z,18.90
2023-04-27T03:50:01.099Z,16.13
2023-04-27T03:52:30.807Z,16.80
2023-04-27T03:55:01.070Z,16.52
2023-04-27T03:57:30.787Z,18.88
2023-04-27T04:00:01.100Z,15.80
2023-04-27T04:02:30.925Z,28.67
2023-04-27T04:05:01.400Z,39.13
2023-04-27T04:07:31.279Z,26.50
2023-04-27T04:10:01.855Z,17.55
2023-04-27T04:12:32.662Z,16.38
2023-04-27T04:15:03.220Z,17.17
2023-04-27T04:17:35.424Z,17.08
2023-04-27T04:20:10.329Z,16.80
2023-04-27T04:22:40.765Z,17.77
2023-04-27T04:25:10.724Z,17.13
2023-04-27T04:27:40.828Z,16.67
2023-04-27T04:30:11.130Z,19.73
2023-04-27T04:32:41.786Z,15.95
2023-04-27T04:35:12.822Z,18.58
2023-04-27T04:37:42.961Z,17.85
2023-04-27T04:40:14.240Z,17.35
2023-04-27T04:42:44.719Z,15.95
2023-04-27T04:45:14.318Z,16.25
2023-04-27T04:47:44.214Z,15.80
2023-04-27T04:50:14.576Z,15.55
2023-04-27T04:52:44.679Z,15.05
2023-04-27T04:55:14.798Z,14.40
2023-04-27T04:57:44.761Z,14.98
2023-04-27T05:00:15.237Z,14.48
2023-04-27T05:02:45.283Z,16.40
2023-04-27T05:05:15.161Z,16.83
2023-04-27T05:07:45.024Z,13.73
2023-04-27T05:10:15.450Z,14.75
2023-04-27T05:12:46.150Z,16.67
2023-04-27T05:15:15.938Z,16.10
2023-04-27T05:17:45.980Z,15.15
2023-04-27T05:20:16.128Z,16.67
2023-04-27T05:22:46.060Z,14.98
2023-04-27T05:25:15.686Z,15.68
2023-04-27T05:27:45.507Z,15.13
2023-04-27T05:30:15.761Z,17.23
2023-04-27T05:32:45.886Z,15.35
2023-04-27T05:35:15.601Z,15.75
2023-04-27T05:37:45.401Z,16.65
2023-04-27T05:40:16.826Z,14.98
2023-04-27T05:42:51.148Z,15.60
2023-04-27T05:45:21.221Z,17.48
2023-04-27T05:47:50.985Z,16.40
2023-04-27T05:50:21.106Z,15.73
2023-04-27T05:52:50.775Z,17.10
2023-04-27T05:55:20.857Z,16.27
2023-04-27T05:58:00.579Z,17.02
2023-04-27T06:00:38.091Z,17.13
2023-04-27T06:03:08.252Z,18.20
2023-04-27T06:05:38.317Z,18.42
2023-04-27T06:08:08.626Z,19.95
2023-04-27T06:10:39.193Z,18.85
2023-04-27T06:13:09.328Z,18.42
2023-04-27T06:15:38.987Z,17.80
2023-04-27T06:18:08.917Z,17.67
2023-04-27T06:20:38.665Z,18.45
2023-04-27T06:23:08.716Z,18.67
2023-04-27T06:25:40.473Z,22.90
2023-04-27T06:28:10.552Z,21.08
2023-04-27T06:30:40.237Z,19.90
2023-04-27T06:33:11.006Z,17.67
2023-04-27T06:35:40.644Z,19.13
2023-04-27T06:38:10.676Z,20.98
2023-04-27T06:40:40.307Z,18.88
2023-04-27T06:43:10.235Z,18.77
2023-04-27T06:45:39.879Z,19.58
2023-04-27T06:48:09.943Z,21.05
2023-04-27T06:50:39.676Z,19.48
2023-04-27T06:53:10.190Z,22.05
2023-04-27T06:55:41.672Z,18.60
2023-04-27T06:58:14.445Z,21.05
2023-04-27T07:00:44.206Z,21.52
2023-04-27T07:03:14.547Z,20.13
2023-04-27T07:05:44.855Z,21.85
2023-04-27T07:08:14.854Z,20.65
2023-04-27T07:10:45.590Z,21.27
2023-04-27T07:13:15.880Z,22.10
2023-04-27T07:15:45.663Z,21.52
2023-04-27T07:18:15.625Z,21.17
2023-04-27T07:20:45.516Z,29.85
2023-04-27T07:23:15.456Z,20.88
2023-04-27T07:25:46.924Z,20.63
2023-04-27T07:28:16.907Z,20.58
2023-04-27T07:30:47.160Z,20.95
2023-04-27T07:33:17.556Z,21.50
2023-04-27T07:35:47.567Z,21.42
2023-04-27T07:38:18.919Z,22.85
2023-04-27T07:40:49.081Z,23.23
2023-04-27T07:43:19.832Z,22.48
2023-04-27T07:45:51.059Z,22.23
2023-04-27T07:48:21.091Z,22.60
2023-04-27T07:50:51.293Z,22.58
2023-04-27T07:53:21.232Z,23.50
2023-04-27T07:55:51.058Z,21.60
2023-04-27T07:58:21.417Z,22.67
2023-04-27T08:00:51.333Z,21.02
2023-04-27T08:03:21.244Z,20.02
2023-04-27T08:05:51.846Z,21.67
2023-04-27T08:08:21.921Z,21.33
2023-04-27T08:10:52.631Z,21.70
2023-04-27T08:13:23.719Z,19.75
2023-04-27T08:16:00.234Z,21.10
2023-04-27T08:18:30.614Z,22.27
2023-04-27T08:21:00.568Z,21.23
2023-04-27T08:23:32.748Z,21.70
2023-04-27T08:26:02.843Z,22.52
2023-04-27T08:28:33.281Z,23.45
2023-04-27T08:31:03.352Z,23.15
2023-04-27T08:33:33.438Z,23.02
2023-04-27T08:36:03.519Z,25.60
2023-04-27T08:38:35.165Z,24.05
2023-04-27T08:41:20.359Z,24.70
2023-04-27T08:43:53.333Z,24.33
2023-04-27T08:46:25.642Z,23.30
2023-04-27T08:48:56.508Z,23.15
2023-04-27T08:51:29.022Z,25.17
2023-04-27T08:54:00.098Z,21.88
2023-04-27T08:56:32.124Z,24.40
2023-04-27T08:59:05.870Z,23.73
2023-04-27T09:01:36.457Z,24.00
2023-04-27T09:04:09.499Z,25.90
2023-04-27T09:06:39.711Z,23.90
2023-04-27T09:09:10.219Z,24.25
2023-04-27T09:11:42.252Z,26.75
2023-04-27T09:14:23.324Z,26.77
2023-04-27T09:17:02.355Z,25.10
2023-04-27T09:19:33.036Z,24.55
2023-04-27T09:22:11.336Z,24.40
2023-04-27T09:24:51.762Z,25.05
2023-04-27T09:27:23.310Z,23.75
2023-04-27T09:29:54.044Z,24.55
2023-04-27T09:32:23.805Z,24.30
2023-04-27T09:34:53.856Z,25.05
2023-04-27T09:37:24.875Z,23.25
2023-04-27T09:39:55.096Z,32.85
2023-04-27T09:42:25.156Z,21.77
2023-04-27T09:44:56.105Z,27.52
2023-04-27T09:47:27.000Z,25.33
2023-04-27T09:49:57.480Z,32.33
2023-04-27T09:52:27.828Z,29.40
2023-04-27T09:55:00.975Z,25.25
2023-04-27T09:57:56.925Z,25.23
2023-04-27T10:00:56.729Z,23.38
2023-04-27T10:04:06.569Z,25.02
2023-04-27T10:07:03.501Z,25.10
2023-04-27T10:09:53.763Z,24.63
2023-04-27T10:12:44.464Z,23.45
2023-04-27T10:15:18.194Z,23.60
2023-04-27T10:18:00.483Z,24.95
2023-04-27T10:20:35.445Z,25.25
2023-04-27T10:23:06.897Z,26.17
2023-04-27T10:25:42.135Z,24.08
2023-04-27T10:28:19.068Z,24.15
2023-04-27T10:30:50.571Z,23.70
2023-04-27T10:33:24.217Z,31.48
2023-04-27T10:36:01.925Z,24.70
2023-04-27T10:38:32.936Z,60.50
2023-04-27T10:41:06.438Z,26.73
2023-04-27T10:43:39.452Z,25.48
2023-04-27T10:46:13.280Z,25.17
2023-04-27T10:48:46.874Z,28.52
2023-04-27T10:51:23.007Z,28.67
2023-04-27T10:53:55.450Z,25.55
2023-04-27T10:56:26.366Z,32.33
2023-04-27T10:58:56.152Z,47.78
2023-04-27T11:01:28.247Z,43.28
2023-04-27T11:04:02.705Z,42.22
2023-04-27T11:06:45.446Z,44.40
2023-04-27T11:09:16.487Z,32.85
2023-04-27T11:11:47.683Z,39.88
2023-04-27T11:14:23.844Z,37.60
2023-04-27T11:16:53.914Z,41.95
2023-04-27T11:19:23.648Z,60.78
2023-04-27T11:21:53.935Z,192.73
2023-04-27T11:24:23.668Z,158.00
2023-04-27T11:26:56.590Z,153.15
2023-04-27T11:29:27.402Z,168.88
2023-04-27T11:31:57.733Z,170.25
2023-04-27T11:34:37.765Z,116.18
2023-04-27T11:39:43.151Z,95.95
2023-04-27T11:42:33.113Z,105.32
2023-04-27T11:45:07.357Z,78.50
2023-04-27T11:47:37.838Z,63.38
2023-04-27T11:50:10.011Z,58.45
2023-04-27T11:52:44.414Z,60.03
2023-04-27T11:55:17.390Z,68.53
2023-04-27T11:57:47.544Z,105.97
2023-04-27T12:00:18.068Z,142.40
2023-04-27T12:02:48.467Z,156.00
2023-04-27T12:05:18.761Z,162.80
2023-04-27T12:07:49.123Z,169.32
2023-04-27T12:10:18.923Z,151.50
2023-04-27T12:12:48.794Z,143.43
2023-04-27T12:15:18.723Z,61.40
2023-04-27T12:17:49.256Z,60.13
2023-04-27T12:20:19.242Z,46.97
2023-04-27T12:22:49.071Z,47.90
2023-04-27T12:25:19.715Z,45.10
2023-04-27T12:27:50.872Z,69.78
2023-04-27T12:30:21.174Z,64.13
2023-04-27T12:32:52.453Z,106.65
2023-04-27T12:35:22.551Z,120.70
2023-04-27T12:37:52.384Z,99.20
2023-04-27T12:40:24.682Z,94.40
2023-04-27T12:42:54.576Z,68.55
2023-04-27T12:45:24.270Z,38.28
2023-04-27T12:48:03.298Z,45.03
2023-04-27T12:50:35.296Z,52.25
2023-04-27T12:53:05.389Z,34.67
2023-04-27T12:55:35.001Z,36.53
2023-04-27T12:58:06.318Z,36.08
2023-04-27T13:00:36.770Z,39.58
2023-04-27T13:03:08.300Z,31.77
2023-04-27T13:05:38.628Z,32.20
2023-04-27T13:08:08.418Z,35.13
2023-04-27T13:10:39.065Z,36.42
2023-04-27T13:13:09.335Z,33.83
2023-04-27T13:15:40.111Z,33.05
2023-04-27T13:18:10.342Z,31.23
2023-04-27T13:20:40.685Z,30.92
2023-04-27T13:23:10.404Z,29.60
2023-04-27T13:25:40.864Z,27.15
2023-04-27T13:28:10.635Z,29.15
2023-04-27T13:30:40.936Z,27.92
2023-04-27T13:33:22.507Z,26.08
2023-04-27T13:35:53.841Z,26.17
2023-04-27T13:38:23.574Z,28.83
2023-04-27T13:40:53.564Z,25.98
2023-04-27T13:43:23.300Z,25.33
2023-04-27T13:45:56.464Z,24.40
2023-04-27T13:48:27.529Z,27.42
2023-04-27T13:50:57.481Z,27.40
2023-04-27T13:53:27.992Z,26.35
2023-04-27T13:55:59.266Z,25.70
2023-04-27T13:58:33.519Z,25.52
2023-04-27T14:01:03.626Z,26.33
2023-04-27T14:03:35.172Z,27.00
2023-04-27T14:06:05.578Z,25.70
2023-04-27T14:08:35.406Z,26.02
2023-04-27T14:11:05.339Z,23.75
2023-04-27T14:13:35.040Z,25.17
2023-04-27T14:16:05.153Z,23.13
2023-04-27T14:18:35.073Z,25.88
2023-04-27T14:21:06.001Z,24.55
2023-04-27T14:23:37.008Z,24.00
2023-04-27T14:26:09.130Z,27.85
2023-04-27T14:28:39.542Z,25.85
2023-04-27T14:31:09.687Z,24.85
2023-04-27T14:33:39.598Z,21.88
2023-04-27T14:36:09.464Z,25.85
2023-04-27T14:38:39.504Z,25.48
2023-04-27T14:41:10.174Z,25.60
2023-04-27T14:43:40.437Z,26.92
2023-04-27T14:46:20.213Z,26.05
2023-04-27T14:48:51.281Z,27.42
2023-04-27T14:51:24.385Z,25.42
2023-04-27T14:53:54.817Z,25.08
2023-04-27T14:56:25.629Z,27.88
2023-04-27T14:58:56.801Z,27.13
2023-04-27T15:01:26.833Z,28.10
2023-04-27T15:03:58.201Z,29.15
2023-04-27T15:06:31.870Z,32.45
2023-04-27T15:09:01.763Z,27.92
2023-04-27T15:11:31.461Z,31.13
2023-04-27T15:14:01.476Z,31.70
2023-04-27T15:16:32.387Z,32.30
2023-04-27T15:19:02.652Z,33.05
2023-04-27T15:21:33.757Z,31.40
2023-04-27T15:24:03.818Z,30.08
2023-04-27T15:26:33.506Z,31.10
2023-04-27T15:29:03.540Z,48.88
2023-04-27T15:31:33.296Z,39.10
2023-04-27T15:34:03.476Z,30.35
2023-04-27T15:36:33.851Z,31.40
2023-04-27T15:39:03.725Z,31.38
2023-04-27T15:41:33.683Z,30.42
2023-04-27T15:44:03.425Z,29.88
2023-04-27T15:46:33.552Z,31.65
2023-04-27T15:49:03.349Z,30.60
2023-04-27T15:51:33.831Z,30.48
2023-04-27T15:54:03.656Z,29.27
2023-04-27T15:56:33.928Z,31.98
2023-04-27T15:59:03.654Z,31.10
2023-04-27T16:01:33.727Z,30.13
2023-04-27T16:04:03.927Z,29.83
2023-04-27T16:06:36.218Z,30.73
2023-04-27T16:09:08.341Z,29.42
2023-04-27T16:11:40.174Z,32.65
2023-04-27T16:14:10.259Z,31.88
2023-04-27T16:16:40.724Z,34.08
2023-04-27T16:19:11.626Z,30.67
2023-04-27T16:21:41.681Z,32.05
2023-04-27T16:24:11.471Z,32.25
2023-04-27T16:26:41.335Z,29.20
2023-04-27T16:29:10.956Z,31.27
2023-04-27T16:31:41.176Z,31.88
2023-04-27T16:34:10.906Z,30.55
2023-04-27T16:36:40.724Z,28.52
2023-04-27T16:39:11.067Z,33.22
2023-04-27T16:41:40.970Z,30.27
2023-04-27T16:44:10.660Z,30.92
2023-04-27T16:46:40.509Z,30.23
2023-04-27T16:49:12.567Z,31.65
2023-04-27T16:51:42.790Z,32.05
2023-04-27T16:54:12.605Z,30.60
2023-04-27T16:56:42.484Z,29.77
2023-04-27T16:59:15.452Z,30.95
2023-04-27T17:01:45.609Z,30.40
2023-04-27T17:04:15.373Z,29.42
2023-04-27T17:06:48.369Z,33.20
2023-04-27T17:09:18.339Z,31.00
2023-04-27T17:11:48.024Z,33.38
2023-04-27T17:14:17.839Z,33.58
2023-04-27T17:16:48.306Z,33.03
2023-04-27T17:19:18.260Z,34.03
2023-04-27T17:21:48.030Z,33.08
2023-04-27T17:24:17.915Z,32.78
2023-04-27T17:26:48.412Z,34.22
2023-04-27T17:29:18.671Z,36.05
2023-04-27T17:31:48.724Z,35.38
2023-04-27T17:34:18.775Z,35.08
2023-04-27T17:36:48.498Z,34.30
2023-04-27T17:39:18.767Z,33.50
2023-04-27T17:41:48.460Z,32.75
2023-04-27T17:44:18.626Z,35.03
2023-04-27T17:46:52.861Z,33.33
2023-04-27T17:49:22.914Z,36.42
2023-04-27T17:51:52.622Z,32.15
2023-04-27T17:54:22.993Z,33.45
2023-04-27T17:56:52.671Z,35.75
2023-04-27T17:59:22.791Z,35.35
2023-04-27T18:01:52.739Z,34.03
2023-04-27T18:04:23.196Z,36.80
2023-04-27T18:06:53.015Z,32.80
2023-04-27T18:09:23.180Z,34.85
2023-04-27T18:11:52.869Z,34.20
2023-04-27T18:14:22.668Z,37.03
2023-04-27T18:16:53.109Z,33.67
2023-04-27T18:19:23.205Z,35.38
2023-04-27T18:21:52.872Z,33.47
2023-04-27T18:24:22.700Z,35.33
2023-04-27T18:26:52.564Z,33.03
2023-04-27T18:29:22.898Z,31.35
2023-04-27T18:31:52.946Z,32.50
2023-04-27T18:34:23.069Z,33.08
2023-04-27T18:36:52.708Z,33.95
2023-04-27T18:39:23.477Z,34.15
2023-04-27T18:41:53.598Z,36.63
2023-04-27T18:44:23.284Z,36.88
2023-04-27T18:46:53.422Z,34.20
2023-04-27T18:49:23.331Z,36.10
2023-04-27T18:51:53.234Z,34.65
2023-04-27T18:54:23.222Z,35.45
2023-04-27T18:56:55.092Z,34.90
2023-04-27T18:59:25.062Z,34.08
2023-04-27T19:01:55.553Z,33.58
2023-04-27T19:04:27.389Z,34.65
2023-04-27T19:06:57.381Z,34.25
2023-04-27T19:09:27.119Z,34.28
2023-04-27T19:12:02.815Z,39.63
2023-04-27T19:14:33.911Z,39.42
2023-04-27T19:17:04.994Z,38.25
2023-04-27T19:19:34.976Z,37.25
2023-04-27T19:22:05.106Z,41.30
2023-04-27T19:24:34.893Z,40.50
2023-04-27T19:27:04.529Z,35.47
2023-04-27T19:29:49.374Z,36.33
2023-04-27T19:32:19.348Z,39.75
2023-04-27T19:34:49.306Z,38.72
2023-04-27T19:37:19.386Z,36.55
2023-04-27T19:39:49.251Z,36.42
2023-04-27T19:42:19.330Z,35.40
2023-04-27T19:44:48.914Z,35.67
2023-04-27T19:47:18.762Z,35.70
2023-04-27T19:49:48.412Z,34.78
2023-04-27T19:52:18.256Z,36.20
2023-04-27T19:54:56.260Z,35.67
2023-04-27T19:57:26.337Z,36.45
2023-04-27T19:59:56.026Z,34.17
2023-04-27T20:02:25.949Z,37.92
2023-04-27T20:04:56.108Z,37.17
2023-04-27T20:07:26.445Z,37.90
2023-04-27T20:09:56.009Z,37.08
2023-04-27T20:12:44.020Z,34.33
2023-04-27T20:15:16.898Z,40.08
2023-04-27T20:17:47.835Z,35.25
2023-04-27T20:20:18.176Z,35.38
2023-04-27T20:22:47.951Z,37.55
2023-04-27T20:25:17.748Z,37.67
2023-04-27T20:27:47.867Z,42.75
2023-04-27T20:30:17.777Z,44.13
2023-04-27T20:32:47.918Z,38.42
2023-04-27T20:35:17.788Z,36.45
2023-04-27T20:37:48.606Z,38.92
2023-04-27T20:40:19.642Z,39.55
2023-04-27T20:42:50.903Z,37.95
2023-04-27T20:45:21.153Z,40.35
2023-04-27T20:47:50.921Z,37.30
2023-04-27T20:50:20.858Z,37.47
2023-04-27T20:52:50.544Z,39.00
2023-04-27T20:55:20.526Z,39.33
2023-04-27T20:57:50.254Z,38.15
2023-04-27T21:00:20.475Z,39.63
2023-04-27T21:02:50.381Z,41.08
2023-04-27T21:05:20.302Z,39.25
2023-04-27T21:07:49.948Z,38.63
2023-04-27T21:10:20.012Z,38.45
2023-04-27T21:12:49.641Z,39.13
2023-04-27T21:15:19.629Z,41.08
2023-04-27T21:17:49.950Z,38.47
2023-04-27T21:20:20.310Z,39.33
2023-04-27T21:22:49.932Z,40.75
2023-04-27T21:25:22.220Z,42.20
2023-04-27T21:27:53.602Z,39.58
2023-04-27T21:30:23.425Z,40.88
2023-04-27T21:32:53.394Z,42.90
2023-04-27T21:35:23.567Z,41.40
2023-04-27T21:37:53.705Z,43.00
2023-04-27T21:40:23.768Z,40.50
2023-04-27T21:42:57.088Z,40.13
2023-04-27T21:45:27.128Z,43.58
2023-04-27T21:47:57.004Z,39.38
2023-04-27T21:50:27.232Z,39.33
2023-04-27T21:52:57.069Z,43.15
2023-04-27T21:55:27.353Z,39.70
2023-04-27T21:57:56.972Z,41.97
2023-04-27T22:00:27.227Z,41.03
2023-04-27T22:02:57.056Z,43.45
2023-04-27T22:05:30.616Z,45.83
2023-04-27T22:08:00.537Z,50.25
2023-04-27T22:10:30.151Z,44.15
2023-04-27T22:13:05.255Z,43.15
2023-04-27T22:15:44.846Z,44.80
2023-04-27T22:18:15.942Z,45.10
2023-04-27T22:20:46.080Z,50.97
2023-04-27T22:23:15.775Z,44.33
2023-04-27T22:25:45.778Z,44.03
2023-04-27T22:28:15.464Z,42.72
2023-04-27T22:30:45.574Z,50.65
2023-04-27T22:33:15.214Z,49.20
2023-04-27T22:35:45.082Z,53.15
2023-04-27T22:38:14.812Z,46.95
2023-04-27T22:40:44.852Z,48.92
2023-04-27T22:43:14.476Z,49.60
2023-04-27T22:45:45.513Z,46.85
2023-04-27T22:48:15.201Z,48.28
2023-04-27T22:50:45.037Z,48.47
2023-04-27T22:53:14.713Z,50.10
2023-04-27T22:55:44.549Z,51.72
2023-04-27T22:58:14.240Z,48.15
2023-04-27T23:00:44.261Z,50.78
2023-04-27T23:03:14.299Z,50.85
2023-04-27T23:05:44.771Z,50.25
2023-04-27T23:08:14.854Z,50.75
2023-04-27T23:10:44.817Z,50.78
2023-04-27T23:13:14.628Z,53.25
2023-04-27T23:15:44.448Z,59.25
2023-04-27T23:18:14.199Z,53.45
2023-04-27T23:20:44.176Z,51.70
2023-04-27T23:23:13.911Z,50.35
2023-04-27T23:25:43.790Z,52.28
2023-04-27T23:28:13.501Z,52.03
2023-04-27T23:30:43.450Z,51.97
2023-04-27T23:33:13.227Z,48.83
2023-04-27T23:35:43.158Z,53.05
2023-04-27T23:38:12.933Z,51.83
2023-04-27T23:40:42.824Z,51.70
2023-04-27T23:43:13.288Z,55.20
2023-04-27T23:45:50.238Z,52.25
2023-04-27T23:48:20.846Z,51.25
2023-04-27T23:50:50.548Z,52.33
2023-04-27T23:53:20.475Z,52.35
2023-04-27T23:55:50.180Z,51.55
2023-04-27T23:58:20.278Z,59.95
